createdAt,value
2022-08-11T04:02:00.790Z,101276.84
2022-08-11T04:05:10.669Z,101279.92
2022-08-11T04:07:55.441Z,101278.90
2022-08-11T04:10:49.610Z,101277.61
2022-08-11T04:13:37.415Z,101274.60
2022-08-11T04:16:31.097Z,101275.94
2022-08-11T04:19:20.478Z,101276.58
2022-08-11T04:22:08.566Z,101276.14
2022-08-11T04:24:53.177Z,101279.42
2022-08-11T04:27:55.904Z,101283.60
2022-08-11T04:30:45.869Z,101287.61
2022-08-11T04:33:24.115Z,101283.07
2022-08-11T04:36:10.610Z,101287.17
2022-08-11T04:39:21.036Z,101282.14
2022-08-11T04:42:33.440Z,101284.46
2022-08-11T04:45:25.953Z,101286.55
2022-08-11T04:48:44.192Z,101286.45
2022-08-11T04:52:06.424Z,101287.74
2022-08-11T04:55:32.084Z,101286.23
2022-08-11T04:59:08.617Z,101290.89
2022-08-11T05:02:17.670Z,101292.59
2022-08-11T05:05:16.953Z,101293.11
2022-08-11T05:08:24.306Z,101292.25
2022-08-11T05:10:58.451Z,101292.74
2022-08-11T05:13:52.843Z,101289.00
2022-08-11T05:16:50.324Z,101291.77
2022-08-11T05:19:41.186Z,101285.12
2022-08-11T05:22:32.971Z,101280.57
2022-08-11T05:26:43.909Z,101282.62
2022-08-11T05:28:50.369Z,101280.52
2022-08-11T05:31:44.495Z,101275.40
2022-08-11T05:34:37.633Z,101279.23
2022-08-11T05:37:26.651Z,101279.61
2022-08-11T05:40:33.354Z,101274.27
2022-08-11T05:43:26.846Z,101274.02
2022-08-11T05:46:25.957Z,101266.65
2022-08-11T05:49:14.815Z,101262.05
2022-08-11T05:52:13.056Z,101260.16
2022-08-11T05:55:06.910Z,101254.77
2022-08-11T05:57:50.871Z,101258.70
2022-08-11T06:00:23.573Z,101254.45
2022-08-11T06:02:56.483Z,101255.77
2022-08-11T06:05:44.068Z,101260.92
2022-08-11T06:08:15.211Z,101257.14
2022-08-11T06:10:46.181Z,101257.38
2022-08-11T06:13:18.092Z,101255.39
2022-08-11T06:15:49.857Z,101256.94
2022-08-11T06:18:19.712Z,101256.98
2022-08-11T06:20:57.513Z,101262.05
2022-08-11T06:23:32.899Z,101262.90
2022-08-11T06:26:11.208Z,101265.85
2022-08-11T06:28:45.622Z,101267.80
2022-08-11T06:31:24.798Z,101269.20
2022-08-11T06:34:11.844Z,101266.34
2022-08-11T06:37:16.171Z,101271.65
2022-08-11T06:40:16.323Z,101277.36
2022-08-11T06:42:51.999Z,101280.50
2022-08-11T06:45:35.008Z,101279.58
2022-08-11T06:48:07.336Z,101280.13
2022-08-11T06:50:56.355Z,101279.39
2022-08-11T06:53:25.467Z,101275.48
2022-08-11T06:56:18.401Z,101269.74
2022-08-11T06:59:09.936Z,101268.18
2022-08-11T07:02:21.965Z,101265.23
2022-08-11T07:04:55.280Z,101263.09
2022-08-11T07:07:42.978Z,101264.79
2022-08-11T07:10:46.350Z,101259.58
2022-08-11T07:13:44.346Z,101260.10
2022-08-11T07:16:26.588Z,101258.38
2022-08-11T07:19:23.191Z,101257.86
2022-08-11T07:22:12.191Z,101260.86
2022-08-11T07:25:06.456Z,101258.17
2022-08-11T07:28:07.450Z,101258.80
2022-08-11T07:30:42.431Z,101253.60
2022-08-11T07:34:05.474Z,101257.54
2022-08-11T07:36:06.110Z,101259.61
2022-08-11T07:38:47.641Z,101254.80
2022-08-11T07:41:23.128Z,101253.84
2022-08-11T07:44:09.387Z,101253.10
2022-08-11T07:47:07.045Z,101253.91
2022-08-11T07:49:57.502Z,101251.63
2022-08-11T07:52:31.234Z,101255.55
2022-08-11T07:55:10.301Z,101257.54
2022-08-11T07:58:15.587Z,101256.02
2022-08-11T08:01:21.730Z,101258.73
2022-08-11T08:04:11.599Z,101257.48
2022-08-11T08:07:00.076Z,101253.70
2022-08-11T08:09:52.817Z,101254.04
2022-08-11T08:12:43.205Z,101254.98
2022-08-11T08:15:34.300Z,101249.45
2022-08-11T08:18:09.650Z,101249.81
2022-08-11T08:21:12.518Z,101247.40
2022-08-11T08:23:46.740Z,101251.25
2022-08-11T08:26:36.738Z,101251.17
2022-08-11T08:29:26.821Z,101252.19
2022-08-11T08:31:58.398Z,101250.06
2022-08-11T08:34:28.521Z,101245.70
2022-08-11T08:37:02.598Z,101244.73
2022-08-11T08:39:49.152Z,101244.59
2022-08-11T08:42:24.901Z,101244.92
2022-08-11T08:45:07.508Z,101240.64
2022-08-11T08:47:43.139Z,101243.69
2022-08-11T08:50:20.145Z,101241.20
2022-08-11T08:52:58.928Z,101238.23
2022-08-11T08:55:31.438Z,101235.05
2022-08-11T08:58:02.369Z,101234.77
2022-08-11T09:00:41.900Z,101234.89
2022-08-11T09:03:39.169Z,101231.66
2022-08-11T09:06:01.448Z,101230.66
2022-08-11T09:08:33.697Z,101227.14
2022-08-11T09:11:23.331Z,101229.08
2022-08-11T09:14:05.140Z,101220.88
2022-08-11T09:16:37.877Z,101223.12
2022-08-11T09:19:08.794Z,101223.09
2022-08-11T09:21:49.502Z,101224.34
2022-08-11T09:24:39.720Z,101225.48
2022-08-11T09:27:11.393Z,101220.60
2022-08-11T09:29:41.292Z,101219.63
2022-08-11T09:32:12.565Z,101218.90
2022-08-11T09:34:42.786Z,101215.45
2022-08-11T09:37:55.418Z,101214.30
2022-08-11T09:40:32.584Z,101212.99
2022-08-11T09:43:26.949Z,101212.23
2022-08-11T09:45:59.741Z,101206.73
2022-08-11T09:48:41.731Z,101205.55
2022-08-11T09:51:12.308Z,101208.64
2022-08-11T09:53:47.232Z,101203.61
2022-08-11T09:56:53.846Z,101205.80
2022-08-11T09:59:24.617Z,101208.40
2022-08-11T10:01:59.520Z,101203.95
2022-08-11T10:04:49.297Z,101204.26
2022-08-11T10:07:21.297Z,101198.66
2022-08-11T10:09:54.112Z,101197.63
2022-08-11T10:12:27.511Z,101199.82
2022-08-11T10:15:28.599Z,101192.77
2022-08-11T10:18:21.958Z,101192.28
2022-08-11T10:20:55.555Z,101190.80
2022-08-11T10:24:01.074Z,101190.73
2022-08-11T10:26:55.767Z,101190.38
2022-08-11T10:29:49.749Z,101185.60
2022-08-11T10:32:58.307Z,101186.38
2022-08-11T10:35:32.299Z,101178.56
2022-08-11T10:38:07.277Z,101176.57
2022-08-11T10:40:41.580Z,101173.56
2022-08-11T10:43:17.079Z,101171.16
2022-08-11T10:46:29.645Z,101166.67
2022-08-11T10:49:01.694Z,101165.21
2022-08-11T10:51:53.746Z,101165.59
2022-08-11T10:54:43.675Z,101166.95
2022-08-11T10:57:37.042Z,101162.91
2022-08-11T11:00:07.787Z,101163.65
2022-08-11T11:02:37.229Z,101161.42
2022-08-11T11:05:31.494Z,101154.33
2022-08-11T11:08:33.025Z,101147.46
2022-08-11T11:11:04.413Z,101143.33
2022-08-11T11:13:57.332Z,101143.09
2022-08-11T11:16:46.519Z,101142.55
2022-08-11T11:19:20.219Z,101146.02
2022-08-11T11:21:55.261Z,101146.14
2022-08-11T11:24:54.540Z,101139.83
2022-08-11T11:27:35.070Z,101136.83
2022-08-11T11:30:17.586Z,101136.22
2022-08-11T11:33:04.825Z,101140.59
2022-08-11T11:35:58.187Z,101139.02
2022-08-11T11:38:28.940Z,101135.52
2022-08-11T11:41:17.392Z,101127.60
2022-08-11T11:43:47.043Z,101118.33
2022-08-11T11:46:18.371Z,101120.84
2022-08-11T11:48:48.601Z,101117.89
2022-08-11T11:51:18.613Z,101111.35
2022-08-11T11:53:49.401Z,101106.96
2022-08-11T11:56:19.377Z,101102.40
2022-08-11T11:59:07.947Z,101098.17
2022-08-11T12:01:44.807Z,101094.75
2022-08-11T12:04:21.636Z,101088.92
2022-08-11T12:06:52.973Z,101082.88
2022-08-11T12:09:25.489Z,101086.55
2022-08-11T12:12:15.349Z,101088.09
2022-08-11T12:14:44.870Z,101078.88
2022-08-11T12:17:13.783Z,101072.13
2022-08-11T12:19:48.367Z,101069.93
2022-08-11T12:22:48.173Z,101060.98
2022-08-11T12:25:37.241Z,101056.09
2022-08-11T12:28:07.253Z,101047.43
2022-08-11T12:30:36.837Z,101050.08
2022-08-11T12:33:06.409Z,101043.13
2022-08-11T12:35:37.702Z,101040.12
2022-08-11T12:38:10.671Z,101042.98
2022-08-11T12:41:16.227Z,101040.05
2022-08-11T12:44:06.753Z,101038.10
2022-08-11T12:46:38.583Z,101033.91
2022-08-11T12:49:38.951Z,101030.52
2022-08-11T12:52:19.985Z,101028.41
2022-08-11T12:54:58.046Z,101028.40
2022-08-11T12:57:51.802Z,101026.10
2022-08-11T13:00:41.489Z,101025.57
2022-08-11T13:03:31.805Z,101022.02
2022-08-11T13:06:04.622Z,101023.40
2022-08-11T13:08:36.478Z,101019.65
2022-08-11T13:11:55.702Z,101014.29
2022-08-11T13:14:17.814Z,101014.98
2022-08-11T13:17:07.091Z,101012.06
2022-08-11T13:19:39.641Z,101009.79
2022-08-11T13:22:09.792Z,101005.20
2022-08-11T13:24:40.382Z,101008.19
2022-08-11T13:27:12.964Z,101004.58
2022-08-11T13:29:47.570Z,101007.34
2022-08-11T13:32:19.149Z,101008.79
2022-08-11T13:34:49.055Z,101006.08
2022-08-11T13:38:18.759Z,101005.01
2022-08-11T13:40:17.772Z,101000.59
2022-08-11T13:42:51.699Z,101002.19
2022-08-11T13:45:24.404Z,100997.83
2022-08-11T13:47:58.192Z,100995.31
2022-08-11T13:50:47.342Z,100991.11
2022-08-11T13:53:20.849Z,100989.19
2022-08-11T13:55:52.495Z,100985.23
2022-08-11T13:58:39.978Z,100981.48
2022-08-11T14:02:03.921Z,100981.21
2022-08-11T14:04:32.572Z,100976.27
2022-08-11T14:07:07.118Z,100976.14
2022-08-11T14:09:41.360Z,100972.58
2022-08-11T14:12:43.703Z,100974.02
2022-08-11T14:15:36.817Z,100972.77
2022-08-11T14:18:19.084Z,100973.21
2022-08-11T14:21:12.151Z,100976.39
2022-08-11T14:23:48.284Z,100976.55
2022-08-11T14:26:24.368Z,100976.58
2022-08-11T14:29:07.000Z,100973.44
2022-08-11T14:31:39.235Z,100967.87
2022-08-11T14:34:12.812Z,100968.09
2022-08-11T14:36:47.968Z,100966.22
2022-08-11T14:39:18.982Z,100964.42
2022-08-11T14:42:13.278Z,100960.72
2022-08-11T14:45:07.086Z,100958.41
2022-08-11T14:47:42.658Z,100959.63
2022-08-11T14:50:18.917Z,100959.20
2022-08-11T14:52:57.286Z,100958.45
2022-08-11T14:55:52.159Z,100957.03
2022-08-11T14:58:24.664Z,100957.02
2022-08-11T15:00:58.001Z,100960.23
2022-08-11T15:03:28.321Z,100957.13
2022-08-11T15:06:00.423Z,100961.77
2022-08-11T15:08:50.820Z,100971.92
2022-08-11T15:11:42.003Z,100974.16
2022-08-11T15:14:12.965Z,100973.66
2022-08-11T15:17:05.422Z,100970.71
2022-08-11T15:19:40.851Z,100966.61
2022-08-11T15:22:31.372Z,100964.98
2022-08-11T15:25:00.837Z,100963.20
2022-08-11T15:27:50.728Z,100966.48
2022-08-11T15:30:38.079Z,100958.63
2022-08-11T15:33:28.110Z,100963.19
2022-08-11T15:36:17.229Z,100962.45
2022-08-11T15:38:58.399Z,100958.95
2022-08-11T15:42:10.191Z,100955.20
2022-08-11T15:45:04.791Z,100954.44
2022-08-11T15:47:41.779Z,100957.36
2022-08-11T15:50:20.263Z,100956.61
2022-08-11T15:52:57.167Z,100947.99
2022-08-11T15:55:30.262Z,100941.42
2022-08-11T15:58:19.046Z,100937.56
2022-08-11T16:01:10.168Z,100942.42
2022-08-11T16:04:09.305Z,100938.29
2022-08-11T16:06:52.448Z,100937.32
2022-08-11T16:09:30.366Z,100940.69
2022-08-11T16:12:26.925Z,100941.66
2022-08-11T16:15:20.755Z,100948.23
2022-08-11T16:17:56.581Z,100946.69
2022-08-11T16:20:28.548Z,100948.08
2022-08-11T16:23:01.707Z,100949.44
2022-08-11T16:27:02.414Z,100952.81
2022-08-11T16:28:27.358Z,100956.75
2022-08-11T16:30:57.572Z,100956.10
2022-08-11T16:33:51.306Z,100951.98
2022-08-11T16:36:38.746Z,100952.48
2022-08-11T16:39:09.601Z,100948.22
2022-08-11T16:42:01.940Z,100947.48
2022-08-11T16:44:51.273Z,100952.12
2022-08-11T16:48:02.522Z,100956.13
2022-08-11T16:50:13.650Z,100955.34
2022-08-11T16:52:43.058Z,100956.02
2022-08-11T16:55:11.967Z,100956.88
2022-08-11T16:58:19.872Z,100954.38
2022-08-11T17:00:51.680Z,100953.70
2022-08-11T17:03:41.790Z,100952.94
2022-08-11T17:06:31.509Z,100951.83
2022-08-11T17:09:22.686Z,100951.54
2022-08-11T17:12:16.162Z,100949.40
2022-08-11T17:14:50.074Z,100950.84
2022-08-11T17:17:27.242Z,100950.21
2022-08-11T17:20:42.362Z,100947.61
2022-08-11T17:23:12.964Z,100946.79
2022-08-11T17:26:03.994Z,100949.20
2022-08-11T17:28:36.380Z,100949.48
2022-08-11T17:31:25.318Z,100950.77
2022-08-11T17:34:17.888Z,100955.50
2022-08-11T17:36:51.808Z,100959.40
2022-08-11T17:39:23.616Z,100962.77
2022-08-11T17:42:12.605Z,100962.92
2022-08-11T17:45:02.318Z,100961.17
2022-08-11T17:47:52.754Z,100962.81
2022-08-11T17:50:22.605Z,100963.23
2022-08-11T17:53:12.031Z,100967.79
2022-08-11T17:56:00.381Z,100967.10
2022-08-11T17:58:51.352Z,100972.40
2022-08-11T18:01:26.814Z,100976.89
2022-08-11T18:03:58.779Z,100972.79
2022-08-11T18:06:34.393Z,100978.08
2022-08-11T18:09:27.345Z,100974.02
2022-08-11T18:12:16.904Z,100977.59
2022-08-11T18:15:10.151Z,100973.45
2022-08-11T18:18:00.036Z,100972.59
2022-08-11T18:20:55.426Z,100976.85
2022-08-11T18:23:46.614Z,100979.34
2022-08-11T18:26:40.755Z,100980.04
2022-08-11T18:29:31.115Z,100979.48
2022-08-11T18:32:49.180Z,100980.48
2022-08-11T18:35:42.778Z,100989.48
2022-08-11T18:38:34.817Z,100990.38
2022-08-11T18:41:27.019Z,100992.33
2022-08-11T18:44:19.603Z,100991.80
2022-08-11T18:47:11.507Z,100993.38
2022-08-11T18:50:05.151Z,100990.82
2022-08-11T18:52:56.338Z,100993.07
2022-08-11T18:55:45.864Z,100999.30
2022-08-11T18:58:40.973Z,101002.48
2022-08-11T19:01:35.960Z,101007.50
2022-08-11T19:04:29.938Z,101006.59
2022-08-11T19:07:21.035Z,101007.10
2022-08-11T19:10:11.248Z,101007.77
2022-08-11T19:13:02.874Z,101008.61
2022-08-11T19:15:52.123Z,101008.18
2022-08-11T19:18:45.491Z,101010.41
2022-08-11T19:21:35.803Z,101012.42
2022-08-11T19:24:26.082Z,101019.67
2022-08-11T19:27:14.576Z,101018.58
2022-08-11T19:30:12.782Z,101022.95
2022-08-11T19:33:03.289Z,101022.83
2022-08-11T19:35:52.483Z,101020.04
2022-08-11T19:38:45.900Z,101027.65
2022-08-11T19:41:56.550Z,101033.98
2022-08-11T19:44:48.033Z,101032.38
2022-08-11T19:47:39.948Z,101034.63
2022-08-11T19:50:28.954Z,101037.83
2022-08-11T19:53:20.498Z,101039.35
2022-08-11T19:56:11.754Z,101044.77
2022-08-11T19:59:00.535Z,101046.54
2022-08-11T20:02:12.920Z,101048.05
2022-08-11T20:04:58.209Z,101052.56
2022-08-11T20:07:47.301Z,101047.17
2022-08-11T20:10:40.645Z,101044.45
2022-08-11T20:13:31.741Z,101045.62
2022-08-11T20:16:22.859Z,101046.85
2022-08-11T20:19:12.799Z,101051.08
2022-08-11T20:22:07.473Z,101053.45
2022-08-11T20:24:59.380Z,101057.23
2022-08-11T20:27:47.304Z,101057.94
2022-08-11T20:30:35.334Z,101058.18
2022-08-11T20:33:23.974Z,101055.10
2022-08-11T20:36:12.527Z,101062.27
2022-08-11T20:39:01.317Z,101060.67
2022-08-11T20:41:59.407Z,101063.34
2022-08-11T20:44:48.664Z,101064.23
2022-08-11T20:50:47.032Z,101068.15
2022-08-11T20:53:39.365Z,101069.05
2022-08-11T20:56:30.029Z,101065.73
2022-08-11T20:59:21.773Z,101065.86
2022-08-11T21:02:11.573Z,101068.23
2022-08-11T21:05:00.602Z,101066.48
2022-08-11T21:07:58.759Z,101069.65
2022-08-11T21:10:50.585Z,101069.11
2022-08-11T21:13:46.073Z,101072.32
2022-08-11T21:16:39.693Z,101070.66
2022-08-11T21:20:00.719Z,101073.29
2022-08-11T21:22:59.202Z,101074.13
2022-08-11T21:26:03.582Z,101069.88
2022-08-11T21:28:55.093Z,101067.05
2022-08-11T21:31:46.242Z,101066.64
2022-08-11T21:34:37.686Z,101070.58
2022-08-11T21:37:27.024Z,101077.42
2022-08-11T21:40:17.687Z,101076.05
2022-08-11T21:43:09.167Z,101079.28
2022-08-11T21:45:57.990Z,101076.00
2022-08-11T21:48:47.329Z,101074.10
2022-08-11T21:51:34.778Z,101076.41
2022-08-11T21:54:22.942Z,101072.96
2022-08-11T21:57:13.734Z,101077.47
2022-08-11T22:00:27.332Z,101073.59
2022-08-11T22:03:15.336Z,101078.80
2022-08-11T22:06:05.018Z,101080.71
2022-08-11T22:08:53.694Z,101075.66
2022-08-11T22:11:42.201Z,101079.38
2022-08-11T22:14:30.135Z,101078.13
2022-08-11T22:17:18.479Z,101076.61
2022-08-11T22:20:07.161Z,101076.02
2022-08-11T22:22:56.186Z,101075.85
2022-08-11T22:25:54.285Z,101073.64
2022-08-11T22:28:43.724Z,101073.89
2022-08-11T22:31:33.695Z,101068.32
2022-08-11T22:34:22.447Z,101072.23
2022-08-11T22:37:11.232Z,101072.22
2022-08-11T22:40:17.883Z,101074.95
2022-08-11T22:43:05.494Z,101073.41
2022-08-11T22:45:53.456Z,101070.80
2022-08-11T22:48:43.959Z,101068.48
2022-08-11T22:51:34.482Z,101067.86
2022-08-11T22:54:24.752Z,101069.67
2022-08-11T22:57:13.024Z,101068.59
2022-08-11T23:00:01.470Z,101071.02
